Time,TemperatureF,DewpointF,PressureIn,WindDirection,WindDirectionDegrees,WindSpeedMPH,WindSpeedGustMPH,Humidity,HourlyPrecipIn,Conditions,Clouds,dailyrainin,SoftwareType,DateUTC
2013-04-03 00:00:00,67.7,64.3,30.03,ESE,116,10.0,10.0,89,0.00,,,0.01,Wunderground v.1.15,2013-04-03 04:00:00,
2013-04-03 00:05:00,67.6,64.2,30.02,SE,130,9.0,15.0,89,0.00,,,0.01,Wunderground v.1.15,2013-04-03 04:05:00,
2013-04-03 00:10:00,67.6,64.2,30.02,ESE,119,9.0,15.0,89,0.00,,,0.01,Wunderground v.1.15,2013-04-03 04:10:00,
2013-04-03 00:20:00,67.6,64.6,30.02,ESE,107,9.0,9.0,90,0.00,,,0.01,Wunderground v.1.15,2013-04-03 04:20:00,
2013-04-03 00:25:00,67.5,64.5,30.02,ESE,115,8.0,15.0,90,0.00,,,0.01,Wunderground v.1.15,2013-04-03 04:25:00,
2013-04-03 00:30:00,67.4,64.4,30.02,ESE,122,7.0,7.0,90,0.00,,,0.01,Wunderground v.1.15,2013-04-03 04:30:00,
2013-04-03 00:35:00,67.4,64.4,30.02,ESE,119,7.0,15.0,90,0.00,,,0.01,Wunderground v.1.15,2013-04-03 04:35:00,
2013-04-03 00:40:00,67.4,64.7,30.02,ESE,113,7.0,15.0,91,0.00,,,0.01,Wunderground v.1.15,2013-04-03 04:40:00,
2013-04-03 00:50:00,67.2,64.5,30.00,East,90,7.0,15.0,91,0.00,,,0.01,Wunderground v.1.15,2013-04-03 04:50:00,
2013-04-03 00:55:00,67.1,64.4,30.00,East,81,7.0,15.0,91,0.00,,,0.01,Wunderground v.1.15,2013-04-03 04:55:00,
2013-04-03 01:00:00,67.1,64.4,30.00,East,94,7.0,15.0,91,0.00,,,0.00,Wunderground v.1.15,2013-04-03 05:00:00,
2013-04-03 01:05:00,67.1,64.4,30.00,East,97,7.0,15.0,91,0.00,,,0.00,Wunderground v.1.15,2013-04-03 05:05:00,
2013-04-03 01:10:00,67.0,64.3,30.00,East,101,6.0,15.0,91,0.00,,,0.00,Wunderground v.1.15,2013-04-03 05:10:00,
2013-04-03 01:20:00,67.0,64.3,29.99,ESE,103,6.0,15.0,91,0.00,,,0.00,Wunderground v.1.15,2013-04-03 05:20:00,
2013-04-03 01:25:00,67.0,64.3,29.99,East,101,7.0,15.0,91,0.00,,,0.00,Wunderground v.1.15,2013-04-03 05:25:00,
2013-04-03 01:35:00,67.0,64.3,29.99,East,86,6.0,15.0,91,0.00,,,0.00,Wunderground v.1.15,2013-04-03 05:35:00,
2013-04-03 01:40:00,67.1,64.4,29.99,East,92,7.0,15.0,91,0.00,,,0.00,Wunderground v.1.15,2013-04-03 05:40:00,
2013-04-03 01:45:00,67.0,64.3,29.99,ESE,104,7.0,15.0,91,0.00,,,0.00,Wunderground v.1.15,2013-04-03 05:45:00,
2013-04-03 01:55:00,67.1,64.4,29.98,East,85,7.0,15.0,91,0.00,,,0.00,Wunderground v.1.15,2013-04-03 05:55:00,
2013-04-03 02:00:00,67.1,64.4,29.97,ENE,77,8.0,15.0,91,0.00,,,0.00,Wunderground v.1.15,2013-04-03 06:00:00,
2013-04-03 02:05:00,67.0,64.3,29.97,ENE,78,9.0,15.0,91,0.00,,,0.00,Wunderground v.1.15,2013-04-03 06:05:00,
2013-04-03 02:15:00,67.0,64.3,29.96,East,84,9.0,15.0,91,0.00,,,0.00,Wunderground v.1.15,2013-04-03 06:15:00,
2013-04-03 02:20:00,67.0,64.3,29.96,East,87,10.0,15.0,91,0.00,,,0.00,Wunderground v.1.15,2013-04-03 06:20:00,
2013-04-03 02:25:00,67.1,64.4,29.96,East,84,11.0,15.0,91,0.00,,,0.00,Wunderground v.1.15,2013-04-03 06:25:00,
2013-04-03 02:35:00,67.1,64.4,29.97,ESE,115,11.0,15.0,91,0.00,,,0.00,Wunderground v.1.15,2013-04-03 06:35:00,
2013-04-03 02:40:00,67.2,64.2,29.97,ESE,115,10.0,15.0,90,0.00,,,0.00,Wunderground v.1.15,2013-04-03 06:40:00,
2013-04-03 02:45:00,67.6,64.2,29.97,ESE,112,11.0,15.0,89,0.00,,,0.00,Wunderground v.1.15,2013-04-03 06:45:00,
2013-04-03 02:55:00,67.7,64.3,29.97,ESE,104,10.0,15.0,89,0.00,,,0.00,Wunderground v.1.15,2013-04-03 06:55:00,
2013-04-03 03:00:00,67.6,64.2,29.97,ESE,103,9.0,9.0,89,0.00,,,0.00,Wunderground v.1.15,2013-04-03 07:00:00,
2013-04-03 03:10:00,67.4,64.0,29.96,East,94,9.0,9.0,89,0.00,,,0.00,Wunderground v.1.15,2013-04-03 07:10:00,
2013-04-03 03:15:00,67.4,64.4,29.96,East,84,10.0,12.0,90,0.00,,,0.00,Wunderground v.1.15,2013-04-03 07:15:00,
2013-04-03 03:20:00,67.4,64.7,29.96,ENE,63,11.0,15.0,91,0.00,,,0.00,Wunderground v.1.15,2013-04-03 07:20:00,
2013-04-03 03:25:00,67.0,64.6,29.95,ENE,67,12.0,15.0,92,0.00,,,0.00,Wunderground v.1.15,2013-04-03 07:25:00,
2013-04-03 03:35:00,66.2,64.4,29.95,East,95,11.0,15.0,94,0.00,,,0.00,Wunderground v.1.15,2013-04-03 07:35:00,
2013-04-03 03:40:00,66.2,64.4,29.94,ESE,107,10.0,10.0,94,0.00,,,0.00,Wunderground v.1.15,2013-04-03 07:40:00,
2013-04-03 03:50:00,66.8,64.7,29.94,ESE,122,12.0,12.0,93,0.00,,,0.00,Wunderground v.1.15,2013-04-03 07:50:00,
2013-04-03 03:55:00,67.1,64.7,29.94,ESE,123,13.0,14.0,92,0.00,,,0.00,Wunderground v.1.15,2013-04-03 07:55:00,
2013-04-03 04:05:00,67.2,64.5,29.94,East,100,10.0,15.0,91,0.00,,,0.00,Wunderground v.1.15,2013-04-03 08:05:00,
2013-04-03 04:10:00,67.2,64.5,29.93,East,85,11.0,11.0,91,0.00,,,0.00,Wunderground v.1.15,2013-04-03 08:10:00,
2013-04-03 04:20:00,67.2,64.5,29.92,ENE,76,12.0,12.0,91,0.00,,,0.00,Wunderground v.1.15,2013-04-03 08:20:00,
2013-04-03 04:30:00,67.1,64.7,29.92,ENE,76,13.0,13.0,92,0.00,,,0.00,Wunderground v.1.15,2013-04-03 08:30:00,
2013-04-03 04:35:00,66.8,64.7,29.93,East,93,12.0,15.0,93,0.00,,,0.00,Wunderground v.1.15,2013-04-03 08:35:00,
2013-04-03 04:45:00,66.7,64.6,29.93,ENE,78,10.0,15.0,93,0.00,,,0.00,Wunderground v.1.15,2013-04-03 08:45:00,
2013-04-03 04:50:00,66.6,64.5,29.93,ENE,77,9.0,9.0,93,0.00,,,0.00,Wunderground v.1.15,2013-04-03 08:50:00,
2013-04-03 04:55:00,66.5,64.4,29.93,ENE,75,10.0,11.0,93,0.00,,,0.00,Wunderground v.1.15,2013-04-03 08:55:00,
2013-04-03 05:05:00,66.2,64.4,29.92,East,85,11.0,15.0,94,0.00,,,0.00,Wunderground v.1.15,2013-04-03 09:05:00,
2013-04-03 05:10:00,66.3,64.5,29.92,East,84,11.0,11.0,94,0.00,,,0.00,Wunderground v.1.15,2013-04-03 09:10:00,
2013-04-03 05:20:00,66.5,64.4,29.92,ENE,61,10.0,15.0,93,0.00,,,0.01,Wunderground v.1.15,2013-04-03 09:20:00,
2013-04-03 05:25:00,66.2,64.4,29.92,ENE,74,10.0,15.0,94,0.00,,,0.01,Wunderground v.1.15,2013-04-03 09:25:00,
2013-04-03 05:35:00,66.0,64.5,29.92,ENE,78,11.0,15.0,95,0.00,,,0.01,Wunderground v.1.15,2013-04-03 09:35:00,
2013-04-03 05:40:00,65.9,64.4,29.93,East,84,10.0,15.0,95,0.00,,,0.02,Wunderground v.1.15,2013-04-03 09:40:00,
2013-04-03 05:45:00,65.8,64.3,29.93,ENE,76,9.0,15.0,95,0.00,,,0.02,Wunderground v.1.15,2013-04-03 09:45:00,
2013-04-03 05:55:00,65.5,64.0,29.93,ENE,62,11.0,15.0,95,0.05,,,0.03,Wunderground v.1.15,2013-04-03 09:55:00,
2013-04-03 06:00:00,65.4,63.9,29.93,ENE,60,13.0,15.0,95,0.12,,,0.04,Wunderground v.1.15,2013-04-03 10:00:00,
2013-04-03 06:10:00,65.3,63.8,29.93,ENE,60,14.0,15.0,95,0.17,,,0.06,Wunderground v.1.15,2013-04-03 10:10:00,
2013-04-03 06:15:00,65.3,63.8,29.93,NE,44,14.0,17.0,95,0.08,,,0.06,Wunderground v.1.15,2013-04-03 10:15:00,
2013-04-03 06:20:00,65.2,63.7,29.94,NE,51,15.0,17.0,95,0.05,,,0.07,Wunderground v.1.15,2013-04-03 10:20:00,
2013-04-03 06:25:00,65.2,63.7,29.94,NE,44,17.0,18.0,95,0.17,,,0.08,Wunderground v.1.15,2013-04-03 10:25:00,
2013-04-03 06:35:00,64.8,63.6,29.95,NE,47,18.0,20.0,96,0.16,,,0.10,Wunderground v.1.15,2013-04-03 10:35:00,
2013-04-03 06:40:00,64.7,63.2,29.94,NE,50,19.0,19.0,95,0.12,,,0.11,Wunderground v.1.15,2013-04-03 10:40:00,
2013-04-03 06:50:00,64.5,63.3,29.95,NE,51,19.0,19.0,96,0.18,,,0.14,Wunderground v.1.15,2013-04-03 10:50:00,
2013-04-03 06:55:00,64.5,63.3,29.95,NE,46,19.0,19.0,96,0.10,,,0.14,Wunderground v.1.15,2013-04-03 10:55:00,
2013-04-03 07:05:00,64.3,63.1,29.95,NE,45,20.0,20.0,96,0.15,,,0.16,Wunderground v.1.15,2013-04-03 11:05:00,
2013-04-03 07:10:00,64.3,63.1,29.96,NE,51,19.0,19.0,96,0.11,,,0.16,Wunderground v.1.15,2013-04-03 11:10:00,
2013-04-03 07:20:00,64.3,63.1,29.98,NE,43,18.0,21.0,96,0.18,,,0.17,Wunderground v.1.15,2013-04-03 11:20:00,
2013-04-03 07:25:00,64.2,63.0,29.97,NE,40,19.0,21.0,96,0.12,,,0.18,Wunderground v.1.15,2013-04-03 11:25:00,
2013-04-03 07:35:00,63.7,62.5,29.97,NNE,30,21.0,26.0,96,0.15,,,0.22,Wunderground v.1.15,2013-04-03 11:35:00,
2013-04-03 07:45:00,63.2,62.0,29.97,NNE,24,22.0,24.0,96,0.06,,,0.22,Wunderground v.1.15,2013-04-03 11:45:00,
2013-04-03 07:50:00,62.7,61.5,29.97,NNE,33,22.0,23.0,96,0.05,,,0.23,Wunderground v.1.15,2013-04-03 11:50:00,
2013-04-03 07:55:00,62.7,61.5,29.98,NNE,27,24.0,27.0,96,0.15,,,0.24,Wunderground v.1.15,2013-04-03 11:55:00,
2013-04-03 08:05:00,62.1,60.9,29.98,NNE,24,25.0,29.0,96,0.06,,,0.25,Wunderground v.1.15,2013-04-03 12:05:00,
2013-04-03 08:10:00,62.1,60.9,29.98,NNE,32,27.0,27.0,96,0.10,,,0.26,Wunderground v.1.15,2013-04-03 12:10:00,
2013-04-03 08:20:00,61.8,60.6,29.99,NNE,32,26.0,28.0,96,0.05,,,0.27,Wunderground v.1.15,2013-04-03 12:20:00,
2013-04-03 08:25:00,61.7,60.5,29.99,NNE,18,27.0,28.0,96,0.18,,,0.28,Wunderground v.1.15,2013-04-03 12:25:00,
2013-04-03 08:35:00,61.3,60.2,29.99,NE,40,27.0,27.0,96,0.21,,,0.30,Wunderground v.1.15,2013-04-03 12:35:00,
2013-04-03 08:40:00,61.3,60.2,29.99,NE,54,27.0,30.0,96,0.09,,,0.30,Wunderground v.1.15,2013-04-03 12:40:00,
2013-04-03 08:50:00,61.1,59.7,29.98,NE,46,28.0,31.0,95,0.11,,,0.32,Wunderground v.1.15,2013-04-03 12:50:00,
2013-04-03 09:00:00,61.0,59.6,29.98,NE,50,29.0,29.0,95,0.05,,,0.33,Wunderground v.1.15,2013-04-03 13:00:00,
2013-04-03 09:05:00,61.2,59.5,29.98,NE,46,29.0,29.0,94,0.05,,,0.33,Wunderground v.1.15,2013-04-03 13:05:00,
2013-04-03 09:10:00,61.3,59.9,29.98,NE,49,29.0,29.0,95,0.08,,,0.34,Wunderground v.1.15,2013-04-03 13:10:00,
2013-04-03 09:20:00,61.4,60.0,29.98,ENE,57,27.0,28.0,95,0.04,,,0.34,Wunderground v.1.15,2013-04-03 13:20:00,
2013-04-03 09:25:00,61.4,59.7,29.99,ENE,65,27.0,28.0,94,0.00,,,0.34,Wunderground v.1.15,2013-04-03 13:25:00,
2013-04-03 09:35:00,61.4,60.0,29.98,ENE,65,27.0,30.0,95,0.12,,,0.36,Wunderground v.1.15,2013-04-03 13:35:00,
2013-04-03 09:40:00,61.2,59.8,29.96,ENE,60,29.0,32.0,95,0.09,,,0.37,Wunderground v.1.15,2013-04-03 13:40:00,
2013-04-03 09:50:00,61.2,59.8,29.97,NE,51,31.0,32.0,95,0.07,,,0.38,Wunderground v.1.15,2013-04-03 13:50:00,
2013-04-03 09:55:00,61.1,59.7,29.96,ENE,59,30.0,32.0,95,0.16,,,0.40,Wunderground v.1.15,2013-04-03 13:55:00,
2013-04-03 10:05:00,60.8,59.4,29.96,ENE,61,31.0,31.0,95,0.19,,,0.42,Wunderground v.1.15,2013-04-03 14:05:00,
2013-04-03 10:15:00,60.9,59.5,29.97,NE,56,29.0,31.0,95,0.05,,,0.43,Wunderground v.1.15,2013-04-03 14:15:00,
2013-04-03 10:20:00,61.1,59.7,29.97,ENE,62,27.0,28.0,95,0.12,,,0.44,Wunderground v.1.15,2013-04-03 14:20:00,
2013-04-03 10:30:00,61.0,59.6,29.99,ENE,68,27.0,27.0,95,0.06,,,0.44,Wunderground v.1.15,2013-04-03 14:30:00,
2013-04-03 10:35:00,61.1,59.7,29.99,NE,53,25.0,27.0,95,0.05,,,0.45,Wunderground v.1.15,2013-04-03 14:35:00,
2013-04-03 10:40:00,61.2,59.8,29.99,ENE,65,24.0,29.0,95,0.13,,,0.46,Wunderground v.1.15,2013-04-03 14:40:00,
2013-04-03 10:50:00,61.0,59.6,29.99,ENE,64,26.0,26.0,95,0.24,,,0.48,Wunderground v.1.15,2013-04-03 14:50:00,
2013-04-03 10:55:00,60.7,59.0,29.99,ENE,64,26.0,27.0,94,0.11,,,0.49,Wunderground v.1.15,2013-04-03 14:55:00,
2013-04-03 11:05:00,60.5,58.8,29.99,ENE,61,26.0,27.0,94,0.07,,,0.50,Wunderground v.1.15,2013-04-03 15:05:00,
2013-04-03 11:10:00,60.4,59.0,29.99,ENE,59,27.0,29.0,95,0.16,,,0.52,Wunderground v.1.15,2013-04-03 15:10:00,
2013-04-03 11:20:00,60.3,58.9,30.00,ENE,60,27.0,27.0,95,0.09,,,0.53,Wunderground v.1.15,2013-04-03 15:20:00,
2013-04-03 11:30:00,59.8,58.4,30.01,ENE,57,27.0,29.0,95,0.09,,,0.55,Wunderground v.1.15,2013-04-03 15:30:00,
2013-04-03 11:40:00,59.9,58.5,30.02,NE,53,27.0,27.0,95,0.10,,,0.57,Wunderground v.1.15,2013-04-03 15:40:00,
2013-04-03 11:45:00,59.9,58.5,30.02,NE,49,27.0,28.0,95,0.14,,,0.58,Wunderground v.1.15,2013-04-03 15:45:00,
2013-04-03 11:50:00,59.8,58.7,30.02,NE,36,27.0,30.0,96,0.07,,,0.59,Wunderground v.1.15,2013-04-03 15:50:00,
2013-04-03 12:00:00,59.7,58.6,30.02,NE,55,27.0,27.0,96,0.09,,,0.61,Wunderground v.1.15,2013-04-03 16:00:00,
2013-04-03 12:05:00,59.5,58.4,30.03,NE,50,26.0,30.0,96,0.18,,,0.62,Wunderground v.1.15,2013-04-03 16:05:00,
2013-04-03 12:15:00,59.5,58.4,30.03,NE,51,27.0,29.0,96,0.20,,,0.64,Wunderground v.1.15,2013-04-03 16:15:00,
2013-04-03 12:25:00,59.2,58.3,30.04,NE,50,27.0,28.0,97,0.31,,,0.67,Wunderground v.1.15,2013-04-03 16:25:00,
2013-04-03 12:30:00,58.8,57.7,30.04,NE,46,26.0,26.0,96,0.12,,,0.68,Wunderground v.1.15,2013-04-03 16:30:00,
2013-04-03 12:35:00,58.9,57.8,30.04,NNE,30,26.0,26.0,96,0.35,,,0.70,Wunderground v.1.15,2013-04-03 16:35:00,
2013-04-03 12:45:00,58.6,57.5,30.05,NE,36,24.0,25.0,96,0.13,,,0.73,Wunderground v.1.15,2013-04-03 16:45:00,
2013-04-03 12:50:00,58.6,57.8,30.04,NE,40,25.0,26.0,97,0.43,,,0.76,Wunderground v.1.15,2013-04-03 16:50:00,
2013-04-03 12:55:00,58.3,57.5,30.05,NE,42,26.0,26.0,97,0.47,,,0.78,Wunderground v.1.15,2013-04-03 16:55:00,
2013-04-03 13:05:00,58.1,57.3,30.05,NE,44,24.0,27.0,97,0.13,,,0.80,Wunderground v.1.15,2013-04-03 17:05:00,
2013-04-03 13:10:00,58.1,57.3,30.06,NE,46,24.0,24.0,97,0.29,,,0.82,Wunderground v.1.15,2013-04-03 17:10:00,
2013-04-03 13:20:00,58.2,57.4,30.06,NE,40,22.0,23.0,97,0.56,,,0.90,Wunderground v.1.15,2013-04-03 17:20:00,
2013-04-03 13:25:00,58.1,57.3,30.07,NE,52,21.0,23.0,97,0.17,,,0.92,Wunderground v.1.15,2013-04-03 17:25:00,
2013-04-03 13:30:00,58.1,57.3,30.07,NE,38,18.0,18.0,97,0.22,,,0.95,Wunderground v.1.15,2013-04-03 17:30:00,
2013-04-03 13:35:00,57.9,57.1,30.06,NE,49,18.0,22.0,97,0.55,,,0.98,Wunderground v.1.15,2013-04-03 17:35:00,
2013-04-03 13:45:00,58.2,57.4,30.06,NE,39,24.0,26.0,97,0.12,,,1.01,Wunderground v.1.15,2013-04-03 17:45:00,
2013-04-03 13:55:00,57.8,57.0,30.06,NE,40,22.0,23.0,97,0.11,,,1.05,Wunderground v.1.15,2013-04-03 17:55:00,
2013-04-03 14:05:00,57.8,57.2,30.05,ENE,63,22.0,22.0,98,0.11,,,1.09,Wunderground v.1.15,2013-04-03 18:05:00,
2013-04-03 14:10:00,58.0,57.4,30.03,ENE,69,22.0,27.0,98,0.16,,,1.10,Wunderground v.1.15,2013-04-03 18:10:00,
2013-04-03 14:15:00,57.9,57.3,29.96,ESE,103,26.0,29.0,98,0.19,,,1.12,Wunderground v.1.15,2013-04-03 18:15:00,
2013-04-03 14:25:00,57.6,57.0,29.92,East,82,29.0,31.0,98,0.07,,,1.13,Wunderground v.1.15,2013-04-03 18:25:00,
2013-04-03 14:35:00,57.8,57.2,29.88,East,92,27.0,31.0,98,0.04,,,1.13,Wunderground v.1.15,2013-04-03 18:35:00,
2013-04-03 14:40:00,58.0,57.4,29.83,East,96,29.0,40.0,98,0.00,,,1.13,Wunderground v.1.15,2013-04-03 18:40:00,
2013-04-03 14:45:00,58.1,57.5,29.76,East,94,36.0,44.0,98,0.00,,,1.13,Wunderground v.1.15,2013-04-03 18:45:00,
2013-04-03 14:55:00,58.7,58.1,29.79,East,95,35.0,38.0,98,0.00,,,1.13,Wunderground v.1.15,2013-04-03 18:55:00,
2013-04-03 15:05:00,59.1,58.2,29.76,East,96,34.0,47.0,97,0.00,,,1.14,Wunderground v.1.15,2013-04-03 19:05:00,
2013-04-03 15:10:00,59.5,58.6,29.76,East,100,35.0,37.0,97,0.00,,,1.14,Wunderground v.1.15,2013-04-03 19:10:00,
2013-04-03 15:15:00,60.4,59.5,29.78,East,100,33.0,40.0,97,0.00,,,1.14,Wunderground v.1.15,2013-04-03 19:15:00,
2013-04-03 15:25:00,61.8,60.1,29.80,ESE,102,29.0,37.0,94,0.00,,,1.14,Wunderground v.1.15,2013-04-03 19:25:00,
2013-04-03 15:30:00,61.8,60.1,29.78,East,92,30.0,35.0,94,0.00,,,1.14,Wunderground v.1.15,2013-04-03 19:30:00,
2013-04-03 15:35:00,61.8,60.1,29.78,East,87,33.0,37.0,94,0.00,,,1.14,Wunderground v.1.15,2013-04-03 19:35:00,
2013-04-03 15:45:00,62.2,60.5,29.78,ESE,108,33.0,42.0,94,0.00,,,1.14,Wunderground v.1.15,2013-04-03 19:45:00,
2013-04-03 15:50:00,61.9,60.2,29.78,ESE,111,33.0,33.0,94,0.00,,,1.14,Wunderground v.1.15,2013-04-03 19:50:00,
2013-04-03 15:55:00,61.7,60.0,29.79,East,87,32.0,33.0,94,0.00,,,1.14,Wunderground v.1.15,2013-04-03 19:55:00,
2013-04-03 16:05:00,61.6,59.9,29.79,ESE,109,29.0,31.0,94,0.00,,,1.14,Wunderground v.1.15,2013-04-03 20:05:00,
2013-04-03 16:10:00,61.8,60.1,29.79,East,85,27.0,27.0,94,0.00,,,1.14,Wunderground v.1.15,2013-04-03 20:10:00,
2013-04-03 16:20:00,62.3,60.6,29.79,East,90,24.0,26.0,94,0.00,,,1.14,Wunderground v.1.15,2013-04-03 20:20:00,
2013-04-03 16:25:00,62.5,60.4,29.78,ESE,109,24.0,28.0,93,0.00,,,1.14,Wunderground v.1.15,2013-04-03 20:25:00,
2013-04-03 16:35:00,62.6,60.5,29.80,East,86,23.0,24.0,93,0.00,,,1.14,Wunderground v.1.15,2013-04-03 20:35:00,
2013-04-03 16:40:00,62.6,60.5,29.80,ENE,58,21.0,30.0,93,0.00,,,1.14,Wunderground v.1.15,2013-04-03 20:40:00,
2013-04-03 16:50:00,62.5,60.7,29.82,ENE,62,28.0,31.0,94,0.00,,,1.14,Wunderground v.1.15,2013-04-03 20:50:00,
2013-04-03 16:55:00,62.6,60.8,29.81,ENE,70,28.0,31.0,94,0.00,,,1.14,Wunderground v.1.15,2013-04-03 20:55:00,
2013-04-03 17:05:00,62.6,61.4,29.82,ENE,71,28.0,30.0,96,0.00,,,1.14,Wunderground v.1.15,2013-04-03 21:05:00,
2013-04-03 17:10:00,62.6,60.8,29.83,ENE,61,26.0,26.0,94,0.00,,,1.14,Wunderground v.1.15,2013-04-03 21:10:00,
2013-04-03 17:20:00,62.7,60.9,29.82,ENE,58,23.0,23.0,94,0.00,,,1.14,Wunderground v.1.15,2013-04-03 21:20:00,
2013-04-03 17:25:00,62.7,60.9,29.83,ENE,67,22.0,25.0,94,0.00,,,1.14,Wunderground v.1.15,2013-04-03 21:25:00,
2013-04-03 17:35:00,62.9,60.8,29.82,ENE,64,21.0,23.0,93,0.00,,,1.14,Wunderground v.1.15,2013-04-03 21:35:00,
2013-04-03 17:40:00,62.9,60.8,29.83,ENE,61,22.0,26.0,93,0.00,,,1.14,Wunderground v.1.15,2013-04-03 21:40:00,
2013-04-03 17:45:00,62.9,61.1,29.83,NE,48,21.0,26.0,94,0.00,,,1.14,Wunderground v.1.15,2013-04-03 21:45:00,
2013-04-03 17:55:00,63.0,60.9,29.83,NE,43,19.0,20.0,93,0.00,,,1.14,Wunderground v.1.15,2013-04-03 21:55:00,
2013-04-03 18:00:00,63.1,61.0,29.83,NE,56,19.0,19.0,93,0.00,,,1.14,Wunderground v.1.15,2013-04-03 22:00:00,
2013-04-03 18:05:00,63.0,60.9,29.84,NE,45,18.0,20.0,93,0.00,,,1.14,Wunderground v.1.15,2013-04-03 22:05:00,
2013-04-03 18:10:00,63.0,60.9,29.83,NE,40,18.0,19.0,93,0.00,,,1.14,Wunderground v.1.15,2013-04-03 22:10:00,
2013-04-03 18:20:00,63.0,60.9,29.83,NNE,32,20.0,23.0,93,0.00,,,1.14,Wunderground v.1.15,2013-04-03 22:20:00,
2013-04-03 18:25:00,63.0,60.9,29.83,NNE,28,20.0,23.0,93,0.00,,,1.14,Wunderground v.1.15,2013-04-03 22:25:00,
2013-04-03 18:35:00,63.1,61.0,29.84,NE,35,21.0,25.0,93,0.00,,,1.14,Wunderground v.1.15,2013-04-03 22:35:00,
2013-04-03 18:40:00,63.1,61.0,29.84,NNE,32,21.0,24.0,93,0.00,,,1.14,Wunderground v.1.15,2013-04-03 22:40:00,
2013-04-03 18:50:00,63.2,60.8,29.85,NE,38,22.0,22.0,92,0.00,,,1.14,Wunderground v.1.15,2013-04-03 22:50:00,
2013-04-03 18:55:00,63.2,60.8,29.86,NNE,30,22.0,22.0,92,0.00,,,1.14,Wunderground v.1.15,2013-04-03 22:55:00,
2013-04-03 19:05:00,63.3,60.9,29.87,NNE,21,19.0,21.0,92,0.00,,,1.14,Wunderground v.1.15,2013-04-03 23:05:00,
2013-04-03 19:10:00,63.3,60.9,29.87,NNE,30,19.0,24.0,92,0.00,,,1.14,Wunderground v.1.15,2013-04-03 23:10:00,
2013-04-03 19:15:00,63.2,60.8,29.87,NNE,33,21.0,26.0,92,0.00,,,1.14,Wunderground v.1.15,2013-04-03 23:15:00,
2013-04-03 19:20:00,63.4,61.0,29.87,NNE,27,22.0,22.0,92,0.00,,,1.14,Wunderground v.1.15,2013-04-03 23:20:00,
2013-04-03 19:30:00,63.3,60.9,29.87,NE,34,23.0,24.0,92,0.00,,,1.14,Wunderground v.1.15,2013-04-03 23:30:00,
2013-04-03 19:35:00,63.3,60.6,29.88,NE,37,25.0,26.0,91,0.00,,,1.14,Wunderground v.1.15,2013-04-03 23:35:00,
2013-04-03 19:45:00,63.4,60.7,29.88,NNE,26,25.0,25.0,91,0.00,,,1.14,Wunderground v.1.15,2013-04-03 23:45:00,
2013-04-03 19:55:00,63.2,60.8,29.88,NNE,24,26.0,26.0,92,0.00,,,1.14,Wunderground v.1.15,2013-04-03 23:55:00,
2013-04-03 20:05:00,62.9,60.5,29.89,NNE,19,24.0,25.0,92,0.00,,,1.14,Wunderground v.1.15,2013-04-04 00:05:00,
2013-04-03 20:10:00,62.9,60.5,29.89,NNE,24,24.0,30.0,92,0.00,,,1.14,Wunderground v.1.15,2013-04-04 00:10:00,
2013-04-03 20:20:00,62.6,60.2,29.90,NNE,18,24.0,24.0,92,0.00,,,1.14,Wunderground v.1.15,2013-04-04 00:20:00,
2013-04-03 20:25:00,62.6,60.2,29.91,NNE,25,23.0,24.0,92,0.00,,,1.14,Wunderground v.1.15,2013-04-04 00:25:00,
2013-04-03 20:30:00,62.6,60.2,29.91,NNE,22,23.0,26.0,92,0.00,,,1.14,Wunderground v.1.15,2013-04-04 00:30:00,
2013-04-03 20:40:00,62.3,59.9,29.92,NNE,23,23.0,23.0,92,0.00,,,1.14,Wunderground v.1.15,2013-04-04 00:40:00,
2013-04-03 20:45:00,62.2,59.8,29.92,NNE,18,22.0,23.0,92,0.00,,,1.14,Wunderground v.1.15,2013-04-04 00:45:00,
2013-04-03 20:55:00,61.8,59.5,29.92,NNE,24,22.0,23.0,92,0.00,,,1.14,Wunderground v.1.15,2013-04-04 00:55:00,
2013-04-03 21:00:00,61.8,59.5,29.92,NNE,21,23.0,23.0,92,0.00,,,1.14,Wunderground v.1.15,2013-04-04 01:00:00,
2013-04-03 21:05:00,61.8,59.8,29.92,NNE,23,24.0,28.0,93,0.00,,,1.14,Wunderground v.1.15,2013-04-04 01:05:00,
2013-04-03 21:10:00,61.6,59.6,29.92,NNE,29,26.0,26.0,93,0.00,,,1.14,Wunderground v.1.15,2013-04-04 01:10:00,
2013-04-03 21:20:00,61.4,59.4,29.93,NNE,23,25.0,28.0,93,0.00,,,1.14,Wunderground v.1.15,2013-04-04 01:20:00,
2013-04-03 21:25:00,61.3,59.3,29.93,NNE,28,26.0,28.0,93,0.00,,,1.14,Wunderground v.1.15,2013-04-04 01:25:00,
2013-04-03 21:35:00,60.9,58.9,29.94,NNE,13,26.0,28.0,93,0.00,,,1.14,Wunderground v.1.15,2013-04-04 01:35:00,
2013-04-03 21:40:00,60.6,58.6,29.93,NNE,14,26.0,26.0,93,0.00,,,1.14,Wunderground v.1.15,2013-04-04 01:40:00,
2013-04-03 21:50:00,60.4,58.4,29.93,NNE,24,27.0,27.0,93,0.00,,,1.14,Wunderground v.1.15,2013-04-04 01:50:00,
2013-04-03 21:55:00,60.3,58.3,29.94,NNE,13,27.0,27.0,93,0.00,,,1.14,Wunderground v.1.15,2013-04-04 01:55:00,
2013-04-03 22:05:00,60.0,57.7,29.94,NNE,19,28.0,28.0,92,0.00,,,1.14,Wunderground v.1.15,2013-04-04 02:05:00,
2013-04-03 22:10:00,60.0,58.0,29.94,NNE,22,26.0,26.0,93,0.00,,,1.14,Wunderground v.1.15,2013-04-04 02:10:00,
2013-04-03 22:20:00,59.6,57.6,29.94,NNE,19,26.0,30.0,93,0.00,,,1.14,Wunderground v.1.15,2013-04-04 02:20:00,
2013-04-03 22:25:00,59.5,57.2,29.95,NNE,19,26.0,30.0,92,0.00,,,1.14,Wunderground v.1.15,2013-04-04 02:25:00,
2013-04-03 22:30:00,59.4,57.1,29.95,NNE,23,26.0,26.0,92,0.00,,,1.14,Wunderground v.1.15,2013-04-04 02:30:00,
2013-04-03 22:40:00,59.5,57.2,29.96,NNE,28,27.0,31.0,92,0.00,,,1.14,Wunderground v.1.15,2013-04-04 02:40:00,
2013-04-03 22:45:00,59.5,57.2,29.96,NNE,15,27.0,31.0,92,0.00,,,1.14,Wunderground v.1.15,2013-04-04 02:45:00,
2013-04-03 22:55:00,59.5,57.2,29.95,NNE,27,26.0,29.0,92,0.00,,,1.14,Wunderground v.1.15,2013-04-04 02:55:00,
2013-04-03 23:00:00,59.4,57.4,29.94,NNE,24,26.0,26.0,93,0.00,,,1.14,Wunderground v.1.15,2013-04-04 03:00:00,
2013-04-03 23:05:00,59.3,57.3,29.94,NE,35,26.0,26.0,93,0.00,,,1.14,Wunderground v.1.15,2013-04-04 03:05:00,
2013-04-03 23:10:00,59.4,57.4,29.95,NE,35,26.0,26.0,93,0.00,,,1.14,Wunderground v.1.15,2013-04-04 03:10:00,
2013-04-03 23:20:00,59.3,57.3,29.95,NNE,32,26.0,26.0,93,0.00,,,1.14,Wunderground v.1.15,2013-04-04 03:20:00,
2013-04-03 23:25:00,59.4,57.4,29.95,NNE,29,25.0,26.0,93,0.00,,,1.14,Wunderground v.1.15,2013-04-04 03:25:00,
2013-04-03 23:35:00,59.2,57.2,29.95,NE,42,24.0,26.0,93,0.00,,,1.14,Wunderground v.1.15,2013-04-04 03:35:00,
2013-04-03 23:40:00,59.2,57.2,29.95,NE,34,24.0,24.0,93,0.00,,,1.14,Wunderground v.1.15,2013-04-04 03:40:00,
2013-04-03 23:50:00,59.3,57.6,29.95,NE,35,23.0,23.0,94,0.00,,,1.14,Wunderground v.1.15,2013-04-04 03:50:00,
2013-04-03 23:55:00,59.1,57.1,29.95,NE,39,23.0,24.0,93,0.00,,,1.14,Wunderground v.1.15,2013-04-04 03:55:00,